createdAt,value
2018-09-10T01:31:34.993Z,1017.64
2018-09-10T01:31:35.566Z,1017.66
2018-09-10T01:31:36.166Z,1017.70
2018-09-10T01:31:36.767Z,1017.66
2018-09-10T01:31:37.368Z,1017.66
2018-09-10T01:31:37.966Z,1017.60
2018-09-10T01:31:38.568Z,1017.67
2018-09-10T01:31:39.164Z,1017.61
2018-09-10T01:32:33.669Z,1017.65
2018-09-10T01:32:34.241Z,1017.65
2018-09-10T01:32:34.841Z,1017.63
2018-09-10T01:32:35.443Z,1017.65
2018-09-10T01:32:36.041Z,1017.63
2018-09-10T01:32:36.643Z,1017.64
2018-09-10T01:32:37.244Z,1017.64
2018-09-10T01:32:37.842Z,1017.64
2018-09-10T01:33:32.349Z,1017.61
2018-09-10T01:33:32.917Z,1017.64
2018-09-10T01:33:33.516Z,1017.62
2018-09-10T01:33:34.117Z,1017.63
2018-09-10T01:33:34.720Z,1017.60
2018-09-10T01:33:35.316Z,1017.61
2018-09-10T01:33:35.917Z,1017.64
2018-09-10T01:33:36.515Z,1017.64
2018-09-10T01:34:29.996Z,1017.64
2018-09-10T01:34:30.577Z,1017.64
2018-09-10T01:34:31.173Z,1017.62
2018-09-10T01:34:31.768Z,1017.64
2018-09-10T01:34:32.370Z,1017.61
2018-09-10T01:34:32.969Z,1017.63
2018-09-10T01:34:33.569Z,1017.65
2018-09-10T01:34:34.175Z,1017.64
2018-09-10T01:35:27.652Z,1017.63
2018-09-10T01:35:28.226Z,1017.64
2018-09-10T01:35:28.825Z,1017.65
2018-09-10T01:35:29.424Z,1017.64
2018-09-10T01:35:30.024Z,1017.67
2018-09-10T01:35:30.623Z,1017.67
2018-09-10T01:35:31.223Z,1017.63
2018-09-10T01:35:31.824Z,1017.67
2018-09-10T01:36:26.326Z,1017.65
2018-09-10T01:36:26.899Z,1017.64
2018-09-10T01:36:27.499Z,1017.64
2018-09-10T01:36:28.099Z,1017.65
2018-09-10T01:36:28.700Z,1017.65
2018-09-10T01:36:29.299Z,1017.68
2018-09-10T01:36:29.904Z,1017.65
2018-09-10T01:36:30.499Z,1017.63
2018-09-10T01:37:23.979Z,1017.66
2018-09-10T01:37:24.551Z,1017.63
2018-09-10T01:37:25.152Z,1017.64
2018-09-10T01:37:25.752Z,1017.66
2018-09-10T01:37:26.354Z,1017.67
2018-09-10T01:37:26.951Z,1017.63
2018-09-10T01:37:27.551Z,1017.65
2018-09-10T01:37:28.151Z,1017.64
2018-09-10T01:38:21.632Z,1017.66
2018-09-10T01:38:22.204Z,1017.67
2018-09-10T01:38:22.804Z,1017.65
2018-09-10T01:38:23.403Z,1017.62
2018-09-10T01:38:24.002Z,1017.68
2018-09-10T01:38:24.603Z,1017.65
2018-09-10T01:38:25.204Z,1017.68
2018-09-10T01:38:25.805Z,1017.66
2018-09-10T01:39:20.305Z,1017.71
2018-09-10T01:39:20.882Z,1017.70
2018-09-10T01:39:21.484Z,1017.69
2018-09-10T01:39:22.076Z,1017.69
2018-09-10T01:39:22.678Z,1017.67
2018-09-10T01:39:23.276Z,1017.67
2018-09-10T01:39:23.882Z,1017.69
2018-09-10T01:39:24.477Z,1017.67
2018-09-10T01:40:17.960Z,1017.69
2018-09-10T01:40:18.531Z,1017.67
2018-09-10T01:40:19.131Z,1017.66
2018-09-10T01:40:19.731Z,1017.69
2018-09-10T01:40:20.332Z,1017.65
2018-09-10T01:40:20.930Z,1017.67
2018-09-10T01:40:21.530Z,1017.69
2018-09-10T01:40:22.131Z,1017.69
2018-09-10T01:41:15.612Z,1017.72
2018-09-10T01:41:16.184Z,1017.70
2018-09-10T01:41:16.792Z,1017.69
2018-09-10T01:41:17.390Z,1017.72
2018-09-10T01:41:17.982Z,1017.71
2018-09-10T01:41:18.583Z,1017.70
2018-09-10T01:41:19.182Z,1017.72
2018-09-10T01:41:19.781Z,1017.71
2018-09-10T01:42:13.262Z,1017.71
2018-09-10T01:42:13.836Z,1017.70
2018-09-10T01:42:14.435Z,1017.69
2018-09-10T01:42:15.035Z,1017.68
2018-09-10T01:42:15.635Z,1017.70
2018-09-10T01:42:16.235Z,1017.70
2018-09-10T01:42:16.834Z,1017.67
2018-09-10T01:42:17.436Z,1017.69
2018-09-10T01:43:10.917Z,1017.72
2018-09-10T01:43:11.487Z,1017.72
2018-09-10T01:43:12.092Z,1017.71
2018-09-10T01:43:12.687Z,1017.67
2018-09-10T01:43:13.287Z,1017.72
2018-09-10T01:43:13.887Z,1017.67
2018-09-10T01:43:14.485Z,1017.67
2018-09-10T01:43:15.088Z,1017.70
2018-09-10T01:44:09.592Z,1017.69
2018-09-10T01:44:10.161Z,1017.70
2018-09-10T01:44:10.763Z,1017.71
2018-09-10T01:44:11.363Z,1017.70
2018-09-10T01:44:11.961Z,1017.69
2018-09-10T01:44:12.562Z,1017.69
2018-09-10T01:44:13.161Z,1017.72
2018-09-10T01:44:13.761Z,1017.70
2018-09-10T01:45:07.241Z,1017.71
2018-09-10T01:45:07.817Z,1017.68
2018-09-10T01:45:08.413Z,1017.67
2018-09-10T01:45:09.015Z,1017.71
2018-09-10T01:45:09.614Z,1017.72
2018-09-10T01:45:10.214Z,1017.69
2018-09-10T01:45:10.855Z,1017.69
2018-09-10T01:45:11.414Z,1017.70
2018-09-10T01:46:04.894Z,1017.67
2018-09-10T01:46:05.469Z,1017.67
2018-09-10T01:46:06.070Z,1017.70
2018-09-10T01:46:06.666Z,1017.69
2018-09-10T01:46:07.265Z,1017.67
2018-09-10T01:46:07.866Z,1017.67
2018-09-10T01:46:08.466Z,1017.69
2018-09-10T01:46:09.067Z,1017.68
2018-09-10T01:47:02.547Z,1017.69
2018-09-10T01:47:03.122Z,1017.67
2018-09-10T01:47:03.717Z,1017.68
2018-09-10T01:47:04.320Z,1017.69
2018-09-10T01:47:04.916Z,1017.71
2018-09-10T01:47:05.516Z,1017.68
2018-09-10T01:47:06.117Z,1017.68
2018-09-10T01:47:06.716Z,1017.71
2018-09-10T01:48:01.223Z,1017.71
2018-09-10T01:48:01.793Z,1017.68
2018-09-10T01:48:02.398Z,1017.68
2018-09-10T01:48:02.995Z,1017.70
2018-09-10T01:48:03.593Z,1017.73
2018-09-10T01:48:04.195Z,1017.69
2018-09-10T01:48:04.792Z,1017.70
2018-09-10T01:48:05.392Z,1017.68
2018-09-10T01:48:59.897Z,1017.68
2018-09-10T01:49:00.469Z,1017.67
2018-09-10T01:49:01.068Z,1017.67
2018-09-10T01:49:01.669Z,1017.69
2018-09-10T01:49:02.268Z,1017.69
2018-09-10T01:49:02.868Z,1017.68
2018-09-10T01:49:03.468Z,1017.66
2018-09-10T01:49:04.068Z,1017.69
2018-09-10T01:49:58.573Z,1017.66
2018-09-10T01:49:59.145Z,1017.66
2018-09-10T01:49:59.744Z,1017.64
2018-09-10T01:50:00.347Z,1017.62
2018-09-10T01:50:00.944Z,1017.67
2018-09-10T01:50:01.544Z,1017.64
2018-09-10T01:50:02.143Z,1017.64
2018-09-10T01:50:02.744Z,1017.67
2018-09-10T01:50:56.225Z,1017.63
2018-09-10T01:50:56.799Z,1017.63
2018-09-10T01:50:57.398Z,1017.61
2018-09-10T01:50:57.999Z,1017.60
2018-09-10T01:50:58.601Z,1017.65
2018-09-10T01:50:59.197Z,1017.65
2018-09-10T01:50:59.797Z,1017.65
2018-09-10T01:51:00.398Z,1017.65
2018-09-10T01:51:53.883Z,1017.65
2018-09-10T01:51:54.450Z,1017.66
2018-09-10T01:51:55.050Z,1017.65
2018-09-10T01:51:55.658Z,1017.62
2018-09-10T01:51:56.252Z,1017.62
2018-09-10T01:51:56.850Z,1017.62
2018-09-10T01:51:57.450Z,1017.61
2018-09-10T01:51:58.050Z,1017.59
2018-09-10T01:52:51.528Z,1017.61
2018-09-10T01:52:52.106Z,1017.59
2018-09-10T01:52:52.701Z,1017.60
2018-09-10T01:52:53.302Z,1017.62
2018-09-10T01:52:53.901Z,1017.63
2018-09-10T01:52:54.504Z,1017.60
2018-09-10T01:52:55.101Z,1017.66
2018-09-10T01:52:55.701Z,1017.62
2018-09-10T01:53:49.179Z,1017.58
2018-09-10T01:53:49.752Z,1017.58
2018-09-10T01:53:50.352Z,1017.56
2018-09-10T01:53:50.951Z,1017.56
2018-09-10T01:53:51.551Z,1017.58
2018-09-10T01:53:52.153Z,1017.58
2018-09-10T01:53:52.752Z,1017.58
2018-09-10T01:53:53.352Z,1017.61
2018-09-10T01:54:46.836Z,1017.59
2018-09-10T01:54:47.406Z,1017.60
2018-09-10T01:54:48.005Z,1017.60
2018-09-10T01:54:48.605Z,1017.61
2018-09-10T01:54:49.205Z,1017.59
2018-09-10T01:54:49.804Z,1017.61
2018-09-10T01:54:50.404Z,1017.62
2018-09-10T01:54:51.005Z,1017.62
2018-09-10T01:55:45.508Z,1017.61
2018-09-10T01:55:46.080Z,1017.61
2018-09-10T01:55:46.679Z,1017.58
2018-09-10T01:55:47.279Z,1017.61
2018-09-10T01:55:47.879Z,1017.59
2018-09-10T01:55:48.480Z,1017.58
2018-09-10T01:55:49.080Z,1017.58
2018-09-10T01:55:49.679Z,1017.56
2018-09-10T01:56:44.183Z,1017.60
2018-09-10T01:56:44.755Z,1017.62
2018-09-10T01:56:45.354Z,1017.58
2018-09-10T01:56:45.955Z,1017.58
2018-09-10T01:56:46.555Z,1017.60
2018-09-10T01:56:47.155Z,1017.58
2018-09-10T01:56:47.755Z,1017.59
2018-09-10T01:56:48.358Z,1017.59
2018-09-10T01:57:42.859Z,1017.62
2018-09-10T01:57:43.431Z,1017.63
2018-09-10T01:57:44.033Z,1017.65
2018-09-10T01:57:44.633Z,1017.59
2018-09-10T01:57:45.233Z,1017.64
2018-09-10T01:57:45.832Z,1017.63
2018-09-10T01:57:46.430Z,1017.61
2018-09-10T01:57:47.032Z,1017.61
2018-09-10T01:58:40.511Z,1017.64
2018-09-10T01:58:41.084Z,1017.64
2018-09-10T01:58:41.683Z,1017.61
2018-09-10T01:58:42.285Z,1017.59
2018-09-10T01:58:42.885Z,1017.63
2018-09-10T01:58:43.484Z,1017.65
2018-09-10T01:58:44.083Z,1017.64
2018-09-10T01:58:44.683Z,1017.66
2018-09-10T01:59:38.165Z,1017.62
2018-09-10T01:59:38.734Z,1017.61
2018-09-10T01:59:39.335Z,1017.60
2018-09-10T01:59:39.937Z,1017.61
2018-09-10T01:59:40.536Z,1017.61
2018-09-10T01:59:41.135Z,1017.59
2018-09-10T01:59:41.735Z,1017.63
2018-09-10T01:59:42.335Z,1017.62
2018-09-10T02:00:36.842Z,1017.61
2018-09-10T02:00:37.410Z,1017.61
2018-09-10T02:00:38.013Z,1017.61
2018-09-10T02:00:38.612Z,1017.58
2018-09-10T02:00:39.212Z,1017.63
2018-09-10T02:00:39.809Z,1017.62
2018-09-10T02:00:40.410Z,1017.59
2018-09-10T02:00:41.010Z,1017.66
2018-09-10T02:01:35.560Z,1017.60
2018-09-10T02:01:36.086Z,1017.65
2018-09-10T02:01:36.684Z,1017.63
2018-09-10T02:01:37.286Z,1017.62
2018-09-10T02:01:37.887Z,1017.62
2018-09-10T02:01:38.486Z,1017.64
2018-09-10T02:01:39.085Z,1017.64
2018-09-10T02:01:39.686Z,1017.60
2018-09-10T02:02:34.189Z,1017.62
2018-09-10T02:02:34.761Z,1017.61
2018-09-10T02:02:35.363Z,1017.63
2018-09-10T02:02:35.963Z,1017.61
2018-09-10T02:02:36.563Z,1017.66
2018-09-10T02:02:37.161Z,1017.65
2018-09-10T02:02:37.761Z,1017.65
2018-09-10T02:02:38.360Z,1017.65
2018-09-10T02:03:31.842Z,1017.61
2018-09-10T02:03:32.417Z,1017.65
2018-09-10T02:03:33.021Z,1017.64
2018-09-10T02:03:33.615Z,1017.61
2018-09-10T02:03:34.217Z,1017.63
2018-09-10T02:03:34.814Z,1017.66
2018-09-10T02:03:35.413Z,1017.65
2018-09-10T02:03:36.013Z,1017.67
2018-09-10T02:04:29.494Z,1017.68
2018-09-10T02:04:30.067Z,1017.70
2018-09-10T02:04:30.666Z,1017.67
2018-09-10T02:04:31.268Z,1017.69
2018-09-10T02:04:31.868Z,1017.70
2018-09-10T02:04:32.466Z,1017.68
2018-09-10T02:04:33.066Z,1017.68
2018-09-10T02:04:33.665Z,1017.68
2018-09-10T02:05:27.145Z,1017.70
2018-09-10T02:05:27.718Z,1017.69
2018-09-10T02:05:28.317Z,1017.70
2018-09-10T02:05:28.918Z,1017.71
2018-09-10T02:05:29.519Z,1017.72
2018-09-10T02:05:30.120Z,1017.71
2018-09-10T02:05:30.718Z,1017.71
2018-09-10T02:05:31.319Z,1017.71
2018-09-10T02:06:24.796Z,1017.72
2018-09-10T02:06:25.370Z,1017.67
2018-09-10T02:06:25.970Z,1017.69
2018-09-10T02:06:26.570Z,1017.70
2018-09-10T02:06:27.173Z,1017.70
2018-09-10T02:06:27.772Z,1017.72
2018-09-10T02:06:28.369Z,1017.71
2018-09-10T02:06:28.970Z,1017.72
2018-09-10T02:07:22.448Z,1017.73
2018-09-10T02:07:23.021Z,1017.71
2018-09-10T02:07:23.621Z,1017.72
2018-09-10T02:07:24.221Z,1017.70
2018-09-10T02:07:24.822Z,1017.69
2018-09-10T02:07:25.421Z,1017.73
2018-09-10T02:07:26.019Z,1017.72
2018-09-10T02:07:26.621Z,1017.68
2018-09-10T02:08:20.100Z,1017.71
2018-09-10T02:08:20.673Z,1017.73
2018-09-10T02:08:21.273Z,1017.70
2018-09-10T02:08:21.873Z,1017.71
2018-09-10T02:08:22.474Z,1017.72
2018-09-10T02:08:23.073Z,1017.71
2018-09-10T02:08:23.673Z,1017.73
2018-09-10T02:08:24.273Z,1017.71
2018-09-10T02:09:18.776Z,1017.72
2018-09-10T02:09:19.350Z,1017.70
2018-09-10T02:09:19.948Z,1017.71
2018-09-10T02:09:20.548Z,1017.72
2018-09-10T02:09:21.151Z,1017.73
2018-09-10T02:09:21.746Z,1017.72
2018-09-10T02:09:22.347Z,1017.72
2018-09-10T02:09:22.946Z,1017.70
2018-09-10T02:10:16.427Z,1017.73
2018-09-10T02:10:17.002Z,1017.72
2018-09-10T02:10:17.600Z,1017.73
2018-09-10T02:10:18.202Z,1017.76
2018-09-10T02:10:18.802Z,1017.76
2018-09-10T02:10:19.400Z,1017.75
2018-09-10T02:10:20.001Z,1017.73
2018-09-10T02:10:20.600Z,1017.72
2018-09-10T02:11:15.001Z,1017.74
2018-09-10T02:11:15.573Z,1017.73
2018-09-10T02:11:16.175Z,1017.69
2018-09-10T02:11:16.774Z,1017.69
2018-09-10T02:11:17.374Z,1017.72
2018-09-10T02:11:17.973Z,1017.72
2018-09-10T02:11:18.574Z,1017.73
2018-09-10T02:11:19.174Z,1017.73
2018-09-10T02:12:12.651Z,1017.70
2018-09-10T02:12:13.228Z,1017.71
2018-09-10T02:12:13.826Z,1017.70
2018-09-10T02:12:14.424Z,1017.72
2018-09-10T02:12:15.026Z,1017.72
2018-09-10T02:12:15.625Z,1017.68
2018-09-10T02:12:16.226Z,1017.68
2018-09-10T02:12:16.825Z,1017.69
2018-09-10T02:13:11.331Z,1017.72
2018-09-10T02:13:11.899Z,1017.71
2018-09-10T02:13:12.500Z,1017.71
2018-09-10T02:13:13.101Z,1017.70
2018-09-10T02:13:13.699Z,1017.68
2018-09-10T02:13:14.298Z,1017.66
2018-09-10T02:13:14.898Z,1017.67
2018-09-10T02:13:15.498Z,1017.69
2018-09-10T02:14:10.004Z,1017.63
2018-09-10T02:14:10.577Z,1017.65
2018-09-10T02:14:11.177Z,1017.64
2018-09-10T02:14:11.778Z,1017.66
2018-09-10T02:14:12.377Z,1017.66
2018-09-10T02:14:12.974Z,1017.70
2018-09-10T02:14:13.576Z,1017.67
2018-09-10T02:14:14.176Z,1017.67
2018-09-10T02:15:07.655Z,1017.65
2018-09-10T02:15:08.232Z,1017.63
2018-09-10T02:15:08.829Z,1017.65
2018-09-10T02:15:09.428Z,1017.63
2018-09-10T02:15:10.031Z,1017.63
2018-09-10T02:15:10.629Z,1017.62
2018-09-10T02:15:11.228Z,1017.67
2018-09-10T02:15:11.829Z,1017.63
2018-09-10T02:16:06.332Z,1017.67
2018-09-10T02:16:06.903Z,1017.64
2018-09-10T02:16:07.502Z,1017.66
2018-09-10T02:16:08.110Z,1017.66
2018-09-10T02:16:08.705Z,1017.68
2018-09-10T02:16:09.345Z,1017.69
2018-09-10T02:16:09.904Z,1017.68
2018-09-10T02:16:10.503Z,1017.63
2018-09-10T02:17:05.029Z,1017.60
2018-09-10T02:17:05.591Z,1017.60
2018-09-10T02:17:06.228Z,1017.57
2018-09-10T02:17:06.824Z,1017.58
2018-09-10T02:17:07.440Z,1017.60
2018-09-10T02:17:08.020Z,1017.57
2018-09-10T02:17:08.642Z,1017.61
2018-09-10T02:17:09.223Z,1017.63
2018-09-10T02:18:03.685Z,1017.60
2018-09-10T02:18:04.255Z,1017.58
2018-09-10T02:18:04.856Z,1017.61
2018-09-10T02:18:05.457Z,1017.59
2018-09-10T02:18:06.058Z,1017.56
2018-09-10T02:18:06.654Z,1017.56
2018-09-10T02:18:07.254Z,1017.61
2018-09-10T02:18:07.856Z,1017.62
2018-09-10T02:19:01.334Z,1017.56
2018-09-10T02:19:01.907Z,1017.57
2018-09-10T02:19:02.508Z,1017.55
2018-09-10T02:19:03.108Z,1017.55
2018-09-10T02:19:03.708Z,1017.60
2018-09-10T02:19:04.307Z,1017.58
2018-09-10T02:19:04.909Z,1017.55
2018-09-10T02:19:05.509Z,1017.57
2018-09-10T02:20:00.011Z,1017.56
2018-09-10T02:20:00.584Z,1017.59
2018-09-10T02:20:01.182Z,1017.58
2018-09-10T02:20:01.786Z,1017.59
2018-09-10T02:20:02.384Z,1017.57
2018-09-10T02:20:02.982Z,1017.57
2018-09-10T02:20:03.581Z,1017.58
2018-09-10T02:20:04.182Z,1017.56
2018-09-10T02:20:57.664Z,1017.55
2018-09-10T02:20:58.235Z,1017.55
2018-09-10T02:20:58.836Z,1017.58
2018-09-10T02:20:59.435Z,1017.54
2018-09-10T02:21:00.036Z,1017.57
2018-09-10T02:21:00.634Z,1017.56
2018-09-10T02:21:01.236Z,1017.55
2018-09-10T02:21:01.835Z,1017.56
2018-09-10T02:21:56.338Z,1017.53
2018-09-10T02:21:56.911Z,1017.55
2018-09-10T02:21:57.510Z,1017.55
2018-09-10T02:21:58.111Z,1017.55
2018-09-10T02:21:58.711Z,1017.58
2018-09-10T02:21:59.311Z,1017.60
2018-09-10T02:21:59.912Z,1017.57
2018-09-10T02:22:00.510Z,1017.58
2018-09-10T02:22:55.013Z,1017.51
2018-09-10T02:22:55.586Z,1017.51
2018-09-10T02:22:56.188Z,1017.51
2018-09-10T02:22:56.785Z,1017.50
2018-09-10T02:22:57.387Z,1017.52
2018-09-10T02:22:57.984Z,1017.54
2018-09-10T02:22:58.590Z,1017.52
2018-09-10T02:22:59.185Z,1017.53
2018-09-10T02:23:52.665Z,1017.49
2018-09-10T02:23:53.238Z,1017.48
2018-09-10T02:23:53.839Z,1017.48
2018-09-10T02:23:54.438Z,1017.50
2018-09-10T02:23:55.041Z,1017.47
2018-09-10T02:23:55.638Z,1017.49
2018-09-10T02:23:56.238Z,1017.49
2018-09-10T02:23:56.838Z,1017.47
2018-09-10T02:24:50.324Z,1017.48
2018-09-10T02:24:50.889Z,1017.47
2018-09-10T02:24:51.489Z,1017.49
2018-09-10T02:24:52.089Z,1017.48
2018-09-10T02:24:52.690Z,1017.47
2018-09-10T02:24:53.289Z,1017.48
2018-09-10T02:24:53.888Z,1017.50
2018-09-10T02:24:54.489Z,1017.50
2018-09-10T02:25:48.993Z,1017.50
2018-09-10T02:25:49.565Z,1017.52
2018-09-10T02:25:50.165Z,1017.52
2018-09-10T02:25:50.768Z,1017.48
2018-09-10T02:25:51.365Z,1017.48
2018-09-10T02:25:51.964Z,1017.49
2018-09-10T02:25:52.567Z,1017.44
2018-09-10T02:25:53.166Z,1017.47
2018-09-10T02:26:47.669Z,1017.40
2018-09-10T02:26:48.240Z,1017.39
2018-09-10T02:26:48.841Z,1017.39
2018-09-10T02:26:49.441Z,1017.40
2018-09-10T02:26:50.044Z,1017.40
2018-09-10T02:26:50.638Z,1017.39
2018-09-10T02:26:51.240Z,1017.41
2018-09-10T02:26:51.840Z,1017.42
2018-09-10T02:27:46.363Z,1017.37
2018-09-10T02:27:46.935Z,1017.38
2018-09-10T02:27:47.550Z,1017.38
2018-09-10T02:27:48.140Z,1017.40
2018-09-10T02:27:48.767Z,1017.40
2018-09-10T02:27:49.365Z,1017.38
2018-09-10T02:27:49.993Z,1017.38
2018-09-10T02:27:50.578Z,1017.38
2018-09-10T02:28:43.999Z,1017.37
2018-09-10T02:28:44.567Z,1017.37
2018-09-10T02:28:45.171Z,1017.37
2018-09-10T02:28:45.767Z,1017.37
2018-09-10T02:28:46.369Z,1017.38
2018-09-10T02:28:46.966Z,1017.37
2018-09-10T02:28:47.567Z,1017.34
2018-09-10T02:28:48.166Z,1017.41
2018-09-10T02:29:41.648Z,1017.40
2018-09-10T02:29:42.223Z,1017.36
2018-09-10T02:29:42.822Z,1017.38
2018-09-10T02:29:43.421Z,1017.37
2018-09-10T02:29:44.022Z,1017.39
2018-09-10T02:29:44.622Z,1017.38
2018-09-10T02:29:45.221Z,1017.35
2018-09-10T02:29:45.822Z,1017.32
2018-09-10T02:30:39.299Z,1017.41
2018-09-10T02:30:39.872Z,1017.39
2018-09-10T02:30:40.473Z,1017.38
2018-09-10T02:30:41.073Z,1017.37
2018-09-10T02:30:41.676Z,1017.37
2018-09-10T02:30:42.276Z,1017.41
2018-09-10T02:30:42.872Z,1017.41
2018-09-10T02:30:43.472Z,1017.41
2018-09-10T02:31:36.956Z,1017.43
2018-09-10T02:31:37.526Z,1017.39
2018-09-10T02:31:38.125Z,1017.41
2018-09-10T02:31:38.726Z,1017.41
2018-09-10T02:31:39.325Z,1017.40
2018-09-10T02:31:39.925Z,1017.40
2018-09-10T02:31:40.526Z,1017.44
2018-09-10T02:31:41.124Z,1017.43
2018-09-10T02:32:34.603Z,1017.43
2018-09-10T02:32:35.178Z,1017.49
2018-09-10T02:32:35.777Z,1017.48
2018-09-10T02:32:36.378Z,1017.47
2018-09-10T02:32:36.979Z,1017.46
2018-09-10T02:32:37.578Z,1017.44
2018-09-10T02:32:38.177Z,1017.46
2018-09-10T02:32:38.784Z,1017.48
2018-09-10T02:33:33.282Z,1017.48
2018-09-10T02:33:33.849Z,1017.48
2018-09-10T02:33:34.449Z,1017.55
2018-09-10T02:33:35.049Z,1017.48
2018-09-10T02:33:35.648Z,1017.52
2018-09-10T02:33:36.249Z,1017.53
2018-09-10T02:33:36.849Z,1017.52
2018-09-10T02:33:37.448Z,1017.51
2018-09-10T02:34:31.954Z,1017.53
2018-09-10T02:34:32.527Z,1017.53
2018-09-10T02:34:33.128Z,1017.55
2018-09-10T02:34:33.733Z,1017.52
2018-09-10T02:34:34.329Z,1017.56
2018-09-10T02:34:34.933Z,1017.55
2018-09-10T02:34:35.528Z,1017.52
2018-09-10T02:34:36.126Z,1017.52
2018-09-10T02:35:30.630Z,1017.61
2018-09-10T02:35:31.203Z,1017.61
2018-09-10T02:35:31.805Z,1017.55
2018-09-10T02:35:32.405Z,1017.57
2018-09-10T02:35:33.003Z,1017.56
2018-09-10T02:35:33.603Z,1017.57
2018-09-10T02:35:34.202Z,1017.55
2018-09-10T02:35:34.802Z,1017.58
2018-09-10T02:36:28.282Z,1017.59
2018-09-10T02:36:28.854Z,1017.56
2018-09-10T02:36:29.454Z,1017.60
2018-09-10T02:36:30.055Z,1017.59
2018-09-10T02:36:30.656Z,1017.59
2018-09-10T02:36:31.254Z,1017.59
2018-09-10T02:36:31.857Z,1017.62
2018-09-10T02:36:32.454Z,1017.57
2018-09-10T02:37:26.958Z,1017.61
2018-09-10T02:37:27.530Z,1017.60
2018-09-10T02:37:28.131Z,1017.58
2018-09-10T02:37:28.731Z,1017.61
2018-09-10T02:37:29.332Z,1017.61
2018-09-10T02:37:29.932Z,1017.60
2018-09-10T02:37:30.532Z,1017.56
2018-09-10T02:37:31.129Z,1017.58
2018-09-10T02:38:24.694Z,1017.62
2018-09-10T02:38:25.244Z,1017.61
2018-09-10T02:38:25.834Z,1017.59
2018-09-10T02:38:26.392Z,1017.62
2018-09-10T02:38:27.036Z,1017.59
2018-09-10T02:38:27.617Z,1017.62
2018-09-10T02:38:28.193Z,1017.59
2018-09-10T02:38:28.830Z,1017.62
2018-09-10T02:39:22.262Z,1017.62
2018-09-10T02:39:22.835Z,1017.61
2018-09-10T02:39:23.435Z,1017.62
2018-09-10T02:39:24.035Z,1017.60
2018-09-10T02:39:24.634Z,1017.61
2018-09-10T02:39:25.235Z,1017.64
2018-09-10T02:39:25.835Z,1017.61
2018-09-10T02:39:26.434Z,1017.60
2018-09-10T02:40:19.914Z,1017.64
2018-09-10T02:40:20.489Z,1017.63
2018-09-10T02:40:21.087Z,1017.66
2018-09-10T02:40:21.686Z,1017.62
2018-09-10T02:40:22.330Z,1017.64
2018-09-10T02:40:22.888Z,1017.66
2018-09-10T02:40:23.487Z,1017.64
2018-09-10T02:40:24.086Z,1017.64
2018-09-10T02:41:18.588Z,1017.63
2018-09-10T02:41:19.163Z,1017.63
2018-09-10T02:41:19.761Z,1017.66
2018-09-10T02:41:20.364Z,1017.61
2018-09-10T02:41:20.961Z,1017.63
2018-09-10T02:41:21.561Z,1017.65
2018-09-10T02:41:22.159Z,1017.62
2018-09-10T02:41:22.762Z,1017.62
2018-09-10T02:42:16.241Z,1017.61
2018-09-10T02:42:16.815Z,1017.62
2018-09-10T02:42:17.413Z,1017.63
2018-09-10T02:42:18.014Z,1017.64
2018-09-10T02:42:18.614Z,1017.63
2018-09-10T02:42:19.213Z,1017.59
2018-09-10T02:42:19.814Z,1017.62
2018-09-10T02:42:20.413Z,1017.64
2018-09-10T02:43:13.893Z,1017.67
2018-09-10T02:43:14.464Z,1017.65
2018-09-10T02:43:15.066Z,1017.67
2018-09-10T02:43:15.667Z,1017.63
2018-09-10T02:43:16.264Z,1017.65
2018-09-10T02:43:16.866Z,1017.62
2018-09-10T02:43:17.466Z,1017.68
2018-09-10T02:43:18.065Z,1017.64
2018-09-10T02:44:11.543Z,1017.64
2018-09-10T02:44:12.117Z,1017.62
2018-09-10T02:44:12.717Z,1017.64
2018-09-10T02:44:13.317Z,1017.62
2018-09-10T02:44:13.917Z,1017.62
2018-09-10T02:44:14.518Z,1017.62
2018-09-10T02:44:15.116Z,1017.64
2018-09-10T02:44:15.718Z,1017.64
2018-09-10T02:45:10.219Z,1017.64
2018-09-10T02:45:10.793Z,1017.66
2018-09-10T02:45:11.391Z,1017.60
2018-09-10T02:45:11.994Z,1017.63
2018-09-10T02:45:12.592Z,1017.58
2018-09-10T02:45:13.191Z,1017.63
2018-09-10T02:45:13.791Z,1017.63
2018-09-10T02:45:14.392Z,1017.63
2018-09-10T02:46:08.896Z,1017.59
2018-09-10T02:46:09.467Z,1017.59
2018-09-10T02:46:10.069Z,1017.62
2018-09-10T02:46:10.667Z,1017.60
2018-09-10T02:46:11.269Z,1017.59
2018-09-10T02:46:11.868Z,1017.60
2018-09-10T02:46:12.469Z,1017.60
2018-09-10T02:46:13.067Z,1017.61
2018-09-10T02:47:07.572Z,1017.61
2018-09-10T02:47:08.147Z,1017.59
2018-09-10T02:47:08.745Z,1017.58
2018-09-10T02:47:09.345Z,1017.60
2018-09-10T02:47:09.949Z,1017.61
2018-09-10T02:47:10.541Z,1017.62
2018-09-10T02:47:11.140Z,1017.61
2018-09-10T02:47:11.742Z,1017.57
2018-09-10T02:48:05.223Z,1017.56
2018-09-10T02:48:05.796Z,1017.57
2018-09-10T02:48:06.397Z,1017.57
2018-09-10T02:48:06.995Z,1017.58
2018-09-10T02:48:07.597Z,1017.59
2018-09-10T02:48:08.204Z,1017.56
2018-09-10T02:48:08.796Z,1017.57
2018-09-10T02:48:09.397Z,1017.55
2018-09-10T02:49:03.899Z,1017.59
2018-09-10T02:49:04.471Z,1017.57
2018-09-10T02:49:05.071Z,1017.57
2018-09-10T02:49:05.669Z,1017.57
2018-09-10T02:49:06.271Z,1017.61
2018-09-10T02:49:06.870Z,1017.58
2018-09-10T02:49:07.470Z,1017.58
2018-09-10T02:49:08.071Z,1017.57
2018-09-10T02:50:01.550Z,1017.56
2018-09-10T02:50:02.124Z,1017.58
2018-09-10T02:50:02.727Z,1017.56
2018-09-10T02:50:03.324Z,1017.57
2018-09-10T02:50:03.923Z,1017.58
2018-09-10T02:50:04.521Z,1017.56
2018-09-10T02:50:05.123Z,1017.58
2018-09-10T02:50:05.724Z,1017.52
2018-09-10T02:51:00.226Z,1017.57
2018-09-10T02:51:00.798Z,1017.59
2018-09-10T02:51:01.401Z,1017.58
2018-09-10T02:51:02.000Z,1017.59
2018-09-10T02:51:02.598Z,1017.57
2018-09-10T02:51:03.197Z,1017.56
2018-09-10T02:51:03.797Z,1017.58
2018-09-10T02:51:04.398Z,1017.57
2018-09-10T02:51:57.980Z,1017.63
2018-09-10T02:51:58.554Z,1017.63
2018-09-10T02:51:59.154Z,1017.63
2018-09-10T02:51:59.753Z,1017.64
2018-09-10T02:52:00.355Z,1017.64
2018-09-10T02:52:00.954Z,1017.61
2018-09-10T02:52:01.556Z,1017.65
2018-09-10T02:52:02.155Z,1017.64
2018-09-10T02:52:56.656Z,1017.63
2018-09-10T02:52:57.229Z,1017.60
2018-09-10T02:52:57.827Z,1017.63
2018-09-10T02:52:58.428Z,1017.62
2018-09-10T02:52:59.029Z,1017.66
2018-09-10T02:52:59.628Z,1017.64
2018-09-10T02:53:00.233Z,1017.65
2018-09-10T02:53:00.827Z,1017.64
2018-09-10T02:53:55.331Z,1017.67
2018-09-10T02:53:55.905Z,1017.71
2018-09-10T02:53:56.503Z,1017.67
2018-09-10T02:53:57.104Z,1017.67
2018-09-10T02:53:57.704Z,1017.66
2018-09-10T02:53:58.304Z,1017.66
2018-09-10T02:53:58.902Z,1017.67
2018-09-10T02:53:59.504Z,1017.68
2018-09-10T02:54:52.982Z,1017.68
2018-09-10T02:54:53.557Z,1017.65
2018-09-10T02:54:54.166Z,1017.64
2018-09-10T02:54:54.753Z,1017.66
2018-09-10T02:54:55.364Z,1017.67
2018-09-10T02:54:55.971Z,1017.68
2018-09-10T02:54:56.560Z,1017.72
2018-09-10T02:54:57.215Z,1017.69
2018-09-10T02:55:50.636Z,1017.67
2018-09-10T02:55:51.208Z,1017.66
2018-09-10T02:55:51.809Z,1017.66
2018-09-10T02:55:52.408Z,1017.66
2018-09-10T02:55:53.007Z,1017.64
2018-09-10T02:55:53.612Z,1017.67
2018-09-10T02:55:54.207Z,1017.63
2018-09-10T02:55:54.808Z,1017.64
2018-09-10T02:56:49.311Z,1017.65
2018-09-10T02:56:49.883Z,1017.63
2018-09-10T02:56:50.483Z,1017.64
2018-09-10T02:56:51.084Z,1017.65
2018-09-10T02:56:51.683Z,1017.68
2018-09-10T02:56:52.281Z,1017.65
2018-09-10T02:56:52.882Z,1017.64
2018-09-10T02:56:53.481Z,1017.66
2018-09-10T02:57:46.963Z,1017.62
2018-09-10T02:57:47.535Z,1017.64
2018-09-10T02:57:48.134Z,1017.64
2018-09-10T02:57:48.738Z,1017.62
2018-09-10T02:57:49.336Z,1017.63
2018-09-10T02:57:49.937Z,1017.64
2018-09-10T02:57:50.534Z,1017.61
2018-09-10T02:57:51.136Z,1017.66
2018-09-10T02:58:45.638Z,1017.63
2018-09-10T02:58:46.213Z,1017.65
2018-09-10T02:58:46.809Z,1017.59
2018-09-10T02:58:47.414Z,1017.65
2018-09-10T02:58:48.011Z,1017.63
2018-09-10T02:58:48.608Z,1017.63